»·PEaware :: N520MP KBFL-KCRQ

N520MP :: KBFL-KCRQ

FLIGHT INFORMATION

Flight Status: Arrived
Operator: Privately registered:
United States
More flights under this callsign
Pilot: Manuel P. (9695)
Aircraft: CANADAIR CL-600 CRJ-200
(CRJ2)
More flights by this aircraft type
Origin: KBFL Meadows
United States
Destination: KCRQ McClellan-Palomar
United States
More flights between these airports :: More routes between these airports
Route: +MEADO3 LHS V459 SLI V23 OCN
File this flight plan on PilotEdge
Remarks:
Altitude:
(Current/Filed)
17,000ft
Speed:
(Current/Filed)
400kts
Departed: 01-Sep-17 02:59 PM
Arrived: 01-Sep-17 03:49 PM
Distance/Time
Traveled:
164nm/0:50
Distance/Time
To Go:
Arrived

Flight Plot

Page will automatically refresh every two minutes.

Flight plan parsing failed; only flown route is shown


Map Options




Map Legend


Flown Route
Filed Route
Departure Airport
Arrival Airport
Navaid (VOR, NDB)
Fix

Horizontal Profiles

Position Reports

Time Latitude Longitude Heading Altitude Ground
Speed
01-Sep-17 14:48 35.429431 -119.046032 226 511ft 0kts
01-Sep-17 14:49 35.429431 -119.046032 226 511ft 0kts
01-Sep-17 14:50 35.429431 -119.046032 226 511ft 0kts
01-Sep-17 14:51 35.429431 -119.046032 226 511ft 0kts
01-Sep-17 14:52 35.429431 -119.046032 226 511ft 0kts
01-Sep-17 14:53 35.429431 -119.046032 226 511ft 0kts
01-Sep-17 14:54 35.429431 -119.046032 226 511ft 0kts
01-Sep-17 14:55 35.429431 -119.046032 226 511ft 0kts
01-Sep-17 14:56 35.429431 -119.046032 226 511ft 0kts
01-Sep-17 14:57 35.429431 -119.046032 226 511ft 0kts
01-Sep-17 14:58 35.428932 -119.046410 241 511ft 4kts
01-Sep-17 14:59 35.427843 -119.046730 136 511ft 8kts
01-Sep-17 15:00 35.426009 -119.044471 132 511ft 10kts
01-Sep-17 15:01 35.425397 -119.044644 271 511ft 0kts
01-Sep-17 15:02 35.425485 -119.045413 276 511ft 8kts
01-Sep-17 15:03 35.442156 -119.065823 313 721ft 188kts
01-Sep-17 15:04 35.478558 -119.112832 313 3346ft 184kts
01-Sep-17 15:05 35.515149 -119.157909 313 5677ft 204kts
01-Sep-17 15:06 35.531949 -119.230957 235 6217ft 283kts
01-Sep-17 15:07 35.463835 -119.237809 140 7953ft 280kts
01-Sep-17 15:08 35.400348 -119.181838 143 9672ft 286kts
01-Sep-17 15:09 35.334331 -119.125429 143 11250ft 292kts
01-Sep-17 15:10 35.267032 -119.068288 143 12750ft 299kts
01-Sep-17 15:11 35.198472 -119.010183 142 14401ft 304kts
01-Sep-17 15:12 35.128109 -118.950647 142 15837ft 310kts
01-Sep-17 15:13 35.057106 -118.890695 142 17187ft 315kts
01-Sep-17 15:14 34.980529 -118.826121 142 17296ft 354kts
01-Sep-17 15:15 34.897313 -118.756195 143 17275ft 382kts
01-Sep-17 15:16 34.811596 -118.684403 142 17267ft 400kts
01-Sep-17 15:17 34.718932 -118.606931 143 17322ft 409kts
01-Sep-17 15:18 34.621393 -118.540795 151 17152ft 422kts
01-Sep-17 15:19 34.514998 -118.478485 151 17131ft 426kts
01-Sep-17 15:20 34.408062 -118.416044 151 17130ft 427kts
01-Sep-17 15:21 34.301590 -118.354043 151 17005ft 428kts
01-Sep-17 15:22 34.196496 -118.293028 152 16971ft 427kts
01-Sep-17 15:23 34.092039 -118.232537 152 16971ft 425kts
01-Sep-17 15:24 33.986404 -118.171552 152 16968ft 424kts
01-Sep-17 15:25 33.882856 -118.111927 152 16944ft 424kts
01-Sep-17 15:26 33.777573 -118.049153 141 16931ft 421kts
01-Sep-17 15:27 33.695337 -117.950757 133 16969ft 418kts
01-Sep-17 15:28 33.613785 -117.854484 133 14939ft 408kts
01-Sep-17 15:29 33.536639 -117.764384 138 13740ft 359kts
01-Sep-17 15:30 33.444403 -117.756091 191 11252ft 324kts
01-Sep-17 15:31 33.366875 -117.780476 191 8525ft 281kts
01-Sep-17 15:32 33.289646 -117.799505 171 5841ft 284kts
01-Sep-17 15:33 33.247046 -117.736409 111 4961ft 243kts
01-Sep-17 15:34 33.225132 -117.666262 111 4954ft 205kts
01-Sep-17 15:35 33.215307 -117.600452 91 4980ft 220kts
01-Sep-17 15:36 33.215375 -117.523146 91 4967ft 241kts
01-Sep-17 15:37 33.215498 -117.447320 91 4954ft 211kts
01-Sep-17 15:38 33.215853 -117.381314 91 4984ft 197kts
01-Sep-17 15:39 33.216117 -117.310960 91 5015ft 227kts
01-Sep-17 15:40 33.216236 -117.233741 91 5029ft 232kts
01-Sep-17 15:41 33.216161 -117.157556 91 5034ft 222kts
01-Sep-17 15:42 33.218956 -117.083859 86 5063ft 218kts
01-Sep-17 15:43 33.222637 -117.014493 91 5042ft 198kts
01-Sep-17 15:44 33.184953 -117.003023 220 5076ft 183kts
01-Sep-17 15:45 33.147149 -117.045386 204 5043ft 188kts
01-Sep-17 15:46 33.115487 -117.006271 71 3621ft 228kts
01-Sep-17 15:47 33.152379 -116.973292 326 3551ft 198kts
01-Sep-17 15:48 33.165420 -117.032313 268 3546ft 181kts
01-Sep-17 15:49 33.158535 -117.091566 259 3563ft 190kts
01-Sep-17 15:50 33.147645 -117.159989 259 2466ft 203kts
01-Sep-17 15:51 33.138819 -117.214467 260 1403ft 141kts
01-Sep-17 15:52 33.131075 -117.262471 260 535ft 147kts
01-Sep-17 15:53 33.127186 -117.286822 258 336ft 20kts
01-Sep-17 15:54 33.126460 -117.287555 131 336ft 0kts
01-Sep-17 15:55 33.126899 -117.283331 78 336ft 20kts
01-Sep-17 15:56 33.126689 -117.281815 89 336ft 0kts
01-Sep-17 15:57 33.126689 -117.281815 89 336ft 0kts
01-Sep-17 15:58 33.126689 -117.281815 89 336ft 0kts

Navigation Log

Ident Type
Flight plan parsing failed, navigation log unavailable